createdAt,value
2022-11-07T00:03:33.394Z,99119.78
2022-11-07T00:06:00.104Z,99140.59
2022-11-07T00:08:32.064Z,99144.84
2022-11-07T00:11:00.331Z,99164.38
2022-11-07T00:13:28.540Z,99165.88
2022-11-07T00:15:59.120Z,99164.50
2022-11-07T00:18:25.910Z,99170.34
2022-11-07T00:20:52.601Z,99161.94
2022-11-07T00:23:19.354Z,99168.38
2022-11-07T00:25:46.041Z,99167.44
2022-11-07T00:28:12.783Z,99167.34
2022-11-07T00:30:39.530Z,99154.38
2022-11-07T00:33:06.295Z,99171.47
2022-11-07T00:35:33.197Z,99153.09
2022-11-07T00:37:59.931Z,99140.34
2022-11-07T00:40:26.671Z,99166.06
2022-11-07T00:42:53.441Z,99155.00
2022-11-07T00:45:20.170Z,99169.88
2022-11-07T00:47:46.887Z,99185.38
2022-11-07T00:50:13.573Z,99193.53
2022-11-07T00:52:40.244Z,99173.56
2022-11-07T00:55:07.387Z,99188.97
2022-11-07T00:57:34.072Z,99183.53
2022-11-07T01:00:00.710Z,99191.81
2022-11-07T01:02:27.655Z,99185.97
2022-11-07T01:05:13.028Z,99182.28
2022-11-07T01:07:41.113Z,99188.34
2022-11-07T01:10:08.343Z,99187.81
2022-11-07T01:12:35.964Z,99186.81
2022-11-07T01:15:04.116Z,99168.88
2022-11-07T01:17:30.907Z,99190.97
2022-11-07T01:19:57.615Z,99176.25
2022-11-07T01:22:24.340Z,99178.22
2022-11-07T01:24:51.100Z,99183.03
2022-11-07T01:27:17.824Z,99188.97
2022-11-07T01:29:44.541Z,99196.47
2022-11-07T01:32:11.254Z,99180.25
2022-11-07T01:34:37.953Z,99184.75
2022-11-07T01:37:04.676Z,99190.06
2022-11-07T01:39:31.360Z,99189.13
2022-11-07T01:41:58.096Z,99183.06
2022-11-07T01:44:24.752Z,99193.63
2022-11-07T01:46:54.770Z,99193.75
2022-11-07T01:49:35.161Z,99192.56
2022-11-07T01:52:09.995Z,99204.34
2022-11-07T01:55:00.923Z,99204.00
2022-11-07T01:57:33.340Z,99198.81
2022-11-07T02:00:02.894Z,99211.56
2022-11-07T02:02:29.779Z,99212.03
2022-11-07T02:04:59.329Z,99212.75
2022-11-07T02:07:26.400Z,99209.00
2022-11-07T02:09:53.709Z,99225.63
2022-11-07T02:12:22.507Z,99213.66
2022-11-07T02:14:49.675Z,99211.81
2022-11-07T02:17:16.957Z,99212.28
2022-11-07T02:19:47.543Z,99215.94
2022-11-07T02:22:40.151Z,99205.91
2022-11-07T02:25:10.343Z,99225.19
2022-11-07T02:27:37.462Z,99225.75
2022-11-07T02:30:14.980Z,99229.75
2022-11-07T02:32:41.712Z,99229.16
2022-11-07T02:35:34.734Z,99229.50
2022-11-07T02:38:05.570Z,99228.41
2022-11-07T02:40:32.932Z,99222.81
2022-11-07T02:43:00.676Z,99215.50
2022-11-07T02:45:34.714Z,99227.16
2022-11-07T02:48:01.860Z,99240.28
2022-11-07T02:50:28.578Z,99226.69
2022-11-07T02:52:55.274Z,99211.03
2022-11-07T02:55:22.213Z,99245.34
2022-11-07T02:57:49.180Z,99255.13
2022-11-07T03:00:16.629Z,99249.78
2022-11-07T03:02:50.139Z,99250.56
2022-11-07T03:05:19.056Z,99267.63
2022-11-07T03:07:48.232Z,99260.00
2022-11-07T03:10:16.121Z,99272.34
2022-11-07T03:12:43.102Z,99247.44
2022-11-07T03:15:11.169Z,99268.50
2022-11-07T03:17:38.132Z,99252.53
2022-11-07T03:20:05.367Z,99260.97
2022-11-07T03:22:32.021Z,99249.13
2022-11-07T03:24:58.735Z,99261.81
2022-11-07T03:27:25.634Z,99269.97
2022-11-07T03:29:52.396Z,99265.38
2022-11-07T03:32:19.061Z,99257.75
2022-11-07T03:34:45.875Z,99263.78
2022-11-07T03:37:12.580Z,99255.94
2022-11-07T03:39:39.373Z,99270.13
2022-11-07T03:42:06.131Z,99261.41
2022-11-07T03:44:32.797Z,99271.94
2022-11-07T03:46:59.780Z,99287.97
2022-11-07T03:49:26.494Z,99268.81
2022-11-07T03:51:53.172Z,99241.53
2022-11-07T03:54:19.871Z,99268.31
2022-11-07T03:56:46.606Z,99278.88
2022-11-07T03:59:13.293Z,99269.41
2022-11-07T04:01:40.134Z,99268.31
2022-11-07T04:04:06.944Z,99271.59
2022-11-07T04:06:33.711Z,99265.78
2022-11-07T04:09:00.451Z,99263.94
2022-11-07T04:11:45.747Z,99260.06
2022-11-07T04:14:31.004Z,99256.31
2022-11-07T04:17:16.393Z,99263.09
2022-11-07T04:19:43.061Z,99267.34
2022-11-07T04:22:09.762Z,99271.72
2022-11-07T04:24:38.291Z,99282.25
2022-11-07T04:27:28.687Z,99296.22
2022-11-07T04:29:56.192Z,99291.47
2022-11-07T04:32:26.083Z,99300.09
2022-11-07T04:34:52.754Z,99301.94
2022-11-07T04:37:20.026Z,99294.88
2022-11-07T04:39:46.751Z,99296.34
2022-11-07T04:42:13.532Z,99275.13
2022-11-07T04:44:40.212Z,99264.66
2022-11-07T04:47:06.922Z,99281.50
2022-11-07T04:49:33.658Z,99275.81
2022-11-07T04:52:00.381Z,99282.63
2022-11-07T04:54:27.146Z,99266.44
2022-11-07T04:56:53.878Z,99280.28
2022-11-07T04:59:20.560Z,99286.38
2022-11-07T05:01:47.244Z,99285.53
2022-11-07T05:04:14.041Z,99277.78
2022-11-07T05:06:42.157Z,99290.63
2022-11-07T05:09:14.596Z,99284.22
2022-11-07T05:11:41.274Z,99278.28
2022-11-07T05:14:08.634Z,99279.47
2022-11-07T05:16:36.105Z,99278.13
2022-11-07T05:19:03.681Z,99270.38
2022-11-07T05:21:30.402Z,99271.94
2022-11-07T05:23:57.081Z,99287.25
2022-11-07T05:26:23.883Z,99305.81
2022-11-07T05:28:50.673Z,99303.25
2022-11-07T05:31:18.204Z,99302.16
2022-11-07T05:33:45.018Z,99300.59
2022-11-07T05:36:17.320Z,99301.75
2022-11-07T05:38:46.849Z,99297.19
2022-11-07T05:41:14.720Z,99313.69
2022-11-07T05:43:41.740Z,99309.56
2022-11-07T05:46:08.994Z,99316.69
2022-11-07T05:48:35.993Z,99305.81
2022-11-07T05:51:04.062Z,99319.34
2022-11-07T05:53:31.060Z,99310.47
2022-11-07T05:55:58.894Z,99313.25
2022-11-07T05:58:25.782Z,99265.91
2022-11-07T06:00:52.635Z,99320.22
2022-11-07T06:03:22.856Z,99318.13
2022-11-07T06:05:49.644Z,99315.28
2022-11-07T06:08:16.595Z,99299.66
2022-11-07T06:10:44.077Z,99321.91
2022-11-07T06:13:14.448Z,99325.34
2022-11-07T06:15:42.606Z,99343.31
2022-11-07T06:18:14.772Z,99353.22
2022-11-07T06:20:41.678Z,99348.53
2022-11-07T06:23:08.432Z,99360.31
2022-11-07T06:25:36.530Z,99364.44
2022-11-07T06:28:08.820Z,99369.63
2022-11-07T06:30:36.586Z,99376.41
2022-11-07T06:33:07.989Z,99368.13
2022-11-07T06:35:35.256Z,99363.97
2022-11-07T06:38:07.557Z,99373.19
2022-11-07T06:40:34.442Z,99373.06
2022-11-07T06:43:14.873Z,99386.91
2022-11-07T06:45:42.841Z,99384.88
2022-11-07T06:48:10.796Z,99380.09
2022-11-07T06:50:38.131Z,99392.16
2022-11-07T06:53:07.113Z,99392.53
2022-11-07T06:55:35.264Z,99393.13
2022-11-07T06:58:02.470Z,99383.13
2022-11-07T07:00:30.862Z,99398.56
2022-11-07T07:02:59.247Z,99412.06
2022-11-07T07:05:26.481Z,99417.78
2022-11-07T07:07:55.248Z,99392.44
2022-11-07T07:10:23.601Z,99401.38
2022-11-07T07:12:50.293Z,99383.75
2022-11-07T07:15:17.126Z,99395.16
2022-11-07T07:17:43.920Z,99390.91
2022-11-07T07:20:11.575Z,99402.72
2022-11-07T07:22:38.351Z,99390.91
2022-11-07T07:25:05.473Z,99420.22
2022-11-07T07:27:32.228Z,99395.44
2022-11-07T07:29:58.993Z,99406.16
2022-11-07T07:32:25.886Z,99392.38
2022-11-07T07:34:52.727Z,99411.28
2022-11-07T07:37:19.547Z,99417.59
2022-11-07T07:39:46.223Z,99422.50
2022-11-07T07:42:13.009Z,99429.78
2022-11-07T07:44:39.801Z,99413.75
2022-11-07T07:47:11.030Z,99433.38
2022-11-07T07:49:38.241Z,99439.63
2022-11-07T07:52:05.291Z,99413.66
2022-11-07T07:54:32.121Z,99437.13
2022-11-07T07:56:58.821Z,99446.28
2022-11-07T07:59:25.605Z,99445.91
2022-11-07T08:01:56.637Z,99434.31
2022-11-07T08:04:24.012Z,99433.59
2022-11-07T08:06:51.001Z,99433.75
2022-11-07T08:09:17.694Z,99435.44
2022-11-07T08:11:44.381Z,99438.72
2022-11-07T08:14:11.903Z,99438.84
2022-11-07T08:16:38.841Z,99443.53
2022-11-07T08:19:05.570Z,99426.53
2022-11-07T08:21:32.655Z,99444.06
2022-11-07T08:24:00.969Z,99437.84
2022-11-07T08:26:27.859Z,99453.78
2022-11-07T08:28:55.155Z,99439.38
2022-11-07T08:31:22.656Z,99453.63
2022-11-07T08:33:49.433Z,99453.50
2022-11-07T08:36:16.238Z,99454.91
2022-11-07T08:38:42.935Z,99453.00
2022-11-07T08:41:09.770Z,99448.75
2022-11-07T08:43:36.487Z,99432.06
2022-11-07T08:46:03.326Z,99404.06
2022-11-07T08:48:30.329Z,99452.03
2022-11-07T08:50:58.387Z,99454.72
2022-11-07T08:53:26.576Z,99463.13
2022-11-07T08:56:00.004Z,99453.44
2022-11-07T08:58:30.033Z,99455.41
2022-11-07T09:00:57.554Z,99456.44
2022-11-07T09:03:44.416Z,99452.00
2022-11-07T09:06:11.193Z,99425.09
2022-11-07T09:08:37.882Z,99419.94
2022-11-07T09:11:05.900Z,99452.47
2022-11-07T09:13:33.957Z,99424.00
2022-11-07T09:16:02.702Z,99416.19
2022-11-07T09:18:29.501Z,99449.81
2022-11-07T09:20:58.122Z,99453.22
2022-11-07T09:23:25.395Z,99449.22
2022-11-07T09:25:53.180Z,99443.56
2022-11-07T09:28:19.891Z,99463.06
2022-11-07T09:30:46.594Z,99464.03
2022-11-07T09:33:13.529Z,99476.94
2022-11-07T09:35:40.550Z,99468.63
2022-11-07T09:38:07.335Z,99461.34
2022-11-07T09:40:50.311Z,99449.78
2022-11-07T09:43:29.237Z,99466.88
2022-11-07T09:46:18.618Z,99453.00
2022-11-07T09:48:51.061Z,99455.81
2022-11-07T09:51:45.905Z,99460.94
2022-11-07T09:54:17.654Z,99455.44
2022-11-07T09:56:44.747Z,99418.34
2022-11-07T09:59:26.093Z,99440.41
2022-11-07T10:01:52.935Z,99422.41
2022-11-07T10:04:25.151Z,99447.22
2022-11-07T10:06:56.067Z,99421.75
2022-11-07T10:09:28.663Z,99435.88
2022-11-07T10:12:09.186Z,99434.84
2022-11-07T10:14:41.831Z,99443.78
2022-11-07T10:17:14.282Z,99425.72
2022-11-07T10:20:08.365Z,99447.19
2022-11-07T10:23:06.104Z,99441.47
2022-11-07T10:25:44.472Z,99430.81
2022-11-07T10:28:19.747Z,99426.94
2022-11-07T10:30:49.372Z,99426.09
2022-11-07T10:33:38.546Z,99431.47
2022-11-07T10:36:19.051Z,99412.72
2022-11-07T10:38:46.247Z,99413.59
2022-11-07T10:41:28.038Z,99432.84
2022-11-07T10:44:11.775Z,99416.97
2022-11-07T10:46:48.935Z,99424.00
2022-11-07T10:49:23.135Z,99424.16
2022-11-07T10:51:51.098Z,99404.75
2022-11-07T10:54:36.190Z,99407.91
2022-11-07T10:57:12.045Z,99405.66
2022-11-07T10:59:58.129Z,99392.34
2022-11-07T11:02:26.435Z,99410.75
2022-11-07T11:04:59.192Z,99400.34
2022-11-07T11:07:33.919Z,99412.16
2022-11-07T11:10:00.712Z,99406.75
2022-11-07T11:12:32.248Z,99398.47
2022-11-07T11:15:12.506Z,99410.31
2022-11-07T11:17:39.986Z,99392.06
2022-11-07T11:20:28.933Z,99393.44
2022-11-07T11:22:55.761Z,99385.34
2022-11-07T11:25:23.944Z,99401.03
2022-11-07T11:28:05.597Z,99396.84
2022-11-07T11:30:36.067Z,99393.44
2022-11-07T11:33:06.913Z,99387.00
2022-11-07T11:35:54.475Z,99387.06
2022-11-07T11:38:29.217Z,99384.19
2022-11-07T11:41:10.565Z,99368.47
2022-11-07T11:44:00.892Z,99381.66
2022-11-07T11:46:31.464Z,99378.44
2022-11-07T11:49:06.034Z,99340.94
2022-11-07T11:51:56.430Z,99372.53
2022-11-07T11:54:23.226Z,99368.00
2022-11-07T11:56:57.033Z,99359.84
2022-11-07T12:00:01.279Z,99377.88
2022-11-07T12:02:27.996Z,99369.75
2022-11-07T12:05:07.073Z,99372.97
2022-11-07T12:07:49.718Z,99367.41
2022-11-07T12:10:48.823Z,99357.59
2022-11-07T12:13:37.332Z,99351.41
2022-11-07T12:16:10.074Z,99356.94
2022-11-07T12:18:52.935Z,99348.81
2022-11-07T12:21:43.521Z,99347.09
2022-11-07T12:24:14.035Z,99345.56
2022-11-07T12:27:06.973Z,99340.84
2022-11-07T12:29:52.358Z,99342.53
2022-11-07T12:32:41.038Z,99337.28
2022-11-07T12:35:13.898Z,99329.00
2022-11-07T12:38:08.599Z,99321.06
2022-11-07T12:40:53.269Z,99329.03
2022-11-07T12:43:26.211Z,99324.81
2022-11-07T12:46:00.333Z,99321.75
2022-11-07T12:48:29.872Z,99321.75
2022-11-07T12:51:15.621Z,99316.19
2022-11-07T12:54:00.035Z,99315.50
2022-11-07T12:56:35.732Z,99312.47
2022-11-07T12:59:11.269Z,99301.38
2022-11-07T13:01:45.391Z,99291.50
2022-11-07T13:04:38.372Z,99307.75
2022-11-07T13:07:21.798Z,99299.94
2022-11-07T13:10:08.446Z,99293.53
2022-11-07T13:12:43.769Z,99298.28
2022-11-07T13:15:13.417Z,99298.34
2022-11-07T13:17:46.241Z,99301.38
2022-11-07T13:20:22.304Z,99305.25
2022-11-07T13:22:51.139Z,99304.19
2022-11-07T13:25:17.937Z,99307.41
2022-11-07T13:28:03.040Z,99305.53
2022-11-07T13:30:29.731Z,99285.34
2022-11-07T13:32:58.082Z,99298.34
2022-11-07T13:35:27.566Z,99297.53
2022-11-07T13:37:58.698Z,99286.91
2022-11-07T13:40:31.083Z,99297.22
2022-11-07T13:43:12.563Z,99281.34
2022-11-07T13:45:48.815Z,99294.88
2022-11-07T13:48:24.678Z,99291.00
2022-11-07T13:51:20.781Z,99298.09
2022-11-07T13:54:27.176Z,99299.09
2022-11-07T13:56:59.692Z,99292.19
2022-11-07T13:59:52.522Z,99286.06
2022-11-07T14:02:30.677Z,99294.34
2022-11-07T14:05:16.451Z,99297.38
2022-11-07T14:07:49.614Z,99293.69
2022-11-07T14:10:27.416Z,99294.66
2022-11-07T14:13:07.965Z,99304.41
2022-11-07T14:15:36.838Z,99293.94
2022-11-07T14:18:04.581Z,99304.19
2022-11-07T14:20:31.321Z,99290.94
2022-11-07T14:23:03.221Z,99295.97
2022-11-07T14:25:35.493Z,99302.63
2022-11-07T14:28:07.484Z,99309.00
2022-11-07T14:30:34.207Z,99307.84
2022-11-07T14:33:04.431Z,99250.19
2022-11-07T14:35:34.391Z,99303.88
2022-11-07T14:38:25.535Z,99307.94
2022-11-07T14:40:59.656Z,99299.66
2022-11-07T14:43:28.161Z,99304.91
2022-11-07T14:46:12.265Z,99295.28
2022-11-07T14:48:42.602Z,99298.97
2022-11-07T14:51:13.455Z,99294.97
2022-11-07T14:53:53.179Z,99306.31
2022-11-07T14:56:24.420Z,99304.84
2022-11-07T14:58:51.856Z,99303.06
2022-11-07T15:01:28.353Z,99291.06
2022-11-07T15:04:14.862Z,99307.97
2022-11-07T15:06:43.562Z,99292.59
2022-11-07T15:09:12.374Z,99273.75
2022-11-07T15:11:41.823Z,99294.94
2022-11-07T15:14:30.046Z,99299.50
2022-11-07T15:16:58.693Z,99296.28
2022-11-07T15:19:25.655Z,99303.09
2022-11-07T15:21:54.522Z,99301.41
2022-11-07T15:24:35.373Z,99293.38
2022-11-07T15:27:17.400Z,99299.91
2022-11-07T15:29:55.766Z,99291.56
2022-11-07T15:32:25.597Z,99289.72
2022-11-07T15:37:41.532Z,99292.84
2022-11-07T15:40:28.760Z,99293.97
2022-11-07T15:42:55.519Z,99279.69
2022-11-07T15:45:22.356Z,99289.44
2022-11-07T15:47:49.982Z,99299.59
2022-11-07T15:50:23.181Z,99302.34
2022-11-07T15:52:52.294Z,99313.63
2022-11-07T15:55:21.539Z,99312.47
2022-11-07T15:57:49.925Z,99294.75
2022-11-07T16:00:22.608Z,99300.38
2022-11-07T16:02:49.611Z,99309.66
2022-11-07T16:05:17.113Z,99295.19
2022-11-07T16:16:01.025Z,99297.25
2022-11-07T16:19:15.156Z,99328.81
2022-11-07T16:52:43.619Z,99290.69
2022-11-07T16:55:43.874Z,99303.81
2022-11-07T17:07:49.947Z,99294.75
2022-11-07T17:19:47.005Z,99305.41
2022-11-07T17:22:40.299Z,99322.91
2022-11-07T17:25:35.247Z,99362.97
2022-11-07T17:32:14.838Z,99320.13
2022-11-07T18:41:36.572Z,99377.75
2022-11-07T18:44:05.884Z,99374.97
2022-11-07T18:46:35.206Z,99385.03
2022-11-07T18:49:04.762Z,99380.06
2022-11-07T18:51:33.346Z,99385.63
2022-11-07T18:54:02.968Z,99371.44
2022-11-07T18:56:31.013Z,99375.19
2022-11-07T18:58:59.001Z,99373.72
2022-11-07T19:01:29.927Z,99373.00
2022-11-07T19:04:00.239Z,99379.56
2022-11-07T19:06:30.377Z,99372.59
2022-11-07T19:08:57.680Z,99388.59
2022-11-07T19:11:29.384Z,99389.72
2022-11-07T19:14:02.127Z,99393.47
2022-11-07T19:16:32.554Z,99362.63
2022-11-07T19:19:00.323Z,99388.94
2022-11-07T19:21:28.568Z,99402.03
2022-11-07T19:23:56.371Z,99381.25
2022-11-07T19:26:24.771Z,99392.56
2022-11-07T19:28:54.634Z,99381.84
2022-11-07T19:31:22.216Z,99392.69
2022-11-07T19:33:51.798Z,99393.25
2022-11-07T19:36:24.047Z,99390.31
2022-11-07T19:38:51.530Z,99368.09
2022-11-07T19:41:19.632Z,99388.66
2022-11-07T19:43:51.583Z,99382.91
2022-11-07T19:46:23.561Z,99398.56
2022-11-07T19:48:55.903Z,99401.41
2022-11-07T19:51:24.104Z,99388.56
2022-11-07T19:53:59.803Z,99405.28
2022-11-07T19:56:30.454Z,99408.25
2022-11-07T19:58:59.643Z,99413.69
2022-11-07T20:01:31.890Z,99422.84
2022-11-07T20:04:00.752Z,99425.50
2022-11-07T20:06:33.611Z,99426.47
2022-11-07T20:09:02.004Z,99421.47
2022-11-07T20:11:31.563Z,99425.19
2022-11-07T20:14:03.276Z,99427.22
2022-11-07T20:16:36.961Z,99418.28
2022-11-07T20:19:04.925Z,99425.81
2022-11-07T20:21:32.960Z,99429.53
2022-11-07T20:24:00.556Z,99429.00
2022-11-07T20:26:31.341Z,99426.47
2022-11-07T20:28:59.644Z,99415.28
2022-11-07T20:31:37.201Z,99427.44
2022-11-07T20:34:07.583Z,99416.34
2022-11-07T20:36:35.475Z,99424.56
2022-11-07T20:39:05.777Z,99422.91
2022-11-07T20:41:33.553Z,99412.69
2022-11-07T20:44:04.627Z,99418.09
2022-11-07T20:46:34.679Z,99419.16
2022-11-07T20:49:10.436Z,99432.91
2022-11-07T20:51:38.134Z,99433.00
2022-11-07T20:54:06.061Z,99418.09
2022-11-07T20:56:34.108Z,99428.13
2022-11-07T20:59:02.581Z,99414.38
2022-11-07T21:01:38.279Z,99426.09
2022-11-07T21:04:12.663Z,99432.91
2022-11-07T21:06:40.018Z,99430.25
2022-11-07T21:09:07.924Z,99427.25
2022-11-07T21:11:35.222Z,99426.63
2022-11-07T21:14:06.145Z,99426.53
2022-11-07T21:16:36.013Z,99431.72
2022-11-07T21:19:05.914Z,99414.94
2022-11-07T21:21:33.854Z,99416.22
2022-11-07T21:24:01.758Z,99430.69
2022-11-07T21:26:39.217Z,99432.19
2022-11-07T21:29:08.194Z,99417.50
2022-11-07T21:31:37.441Z,99418.44
2022-11-07T21:34:07.199Z,99411.63
2022-11-07T21:36:34.145Z,99389.31
2022-11-07T21:39:03.124Z,99375.78
2022-11-07T21:41:30.999Z,99433.53
2022-11-07T21:43:58.497Z,99385.47
2022-11-07T21:46:28.581Z,99419.81
2022-11-07T21:48:56.133Z,99419.19
2022-11-07T21:51:26.159Z,99420.78
2022-11-07T21:53:53.367Z,99411.75
2022-11-07T21:56:22.764Z,99417.38
2022-11-07T21:58:51.528Z,99414.94
2022-11-07T22:01:20.202Z,99422.16
2022-11-07T22:06:37.830Z,99385.44
2022-11-07T22:09:06.780Z,99406.63
2022-11-07T22:11:33.681Z,99407.69
2022-11-07T22:14:00.526Z,99405.97
2022-11-07T22:16:27.313Z,99404.03
2022-11-07T22:18:54.358Z,99414.34
2022-11-07T22:21:23.460Z,99422.03
2022-11-07T22:23:50.748Z,99399.22
2022-11-07T22:26:22.829Z,99412.09
2022-11-07T22:28:50.356Z,99404.53
2022-11-07T22:31:20.830Z,99407.69
2022-11-07T22:33:54.853Z,99418.03
2022-11-07T22:36:21.855Z,99374.91
2022-11-07T22:38:49.117Z,99417.81
2022-11-07T22:41:21.132Z,99405.03
2022-11-07T22:43:48.511Z,99430.63
2022-11-07T22:46:18.943Z,99369.31
2022-11-07T22:48:46.685Z,99414.53
2022-11-07T22:51:16.481Z,99419.59
2022-11-07T22:53:43.301Z,99420.56
2022-11-07T22:56:18.172Z,99406.81
2022-11-07T22:58:47.032Z,99366.53
2022-11-07T23:01:20.276Z,99377.53
2022-11-07T23:03:47.973Z,99383.22
2022-11-07T23:06:15.452Z,99369.78
2022-11-07T23:08:42.442Z,99370.84
2022-11-07T23:14:06.992Z,99413.66
2022-11-07T23:16:39.632Z,99413.09
2022-11-07T23:19:19.072Z,99413.94
2022-11-07T23:21:46.317Z,99415.19
2022-11-07T23:24:13.884Z,99381.72
2022-11-07T23:26:40.781Z,99408.34
2022-11-07T23:29:11.911Z,99415.31
2022-11-07T23:31:43.363Z,99412.25
2022-11-07T23:34:10.236Z,99417.53
2022-11-07T23:36:37.321Z,99396.34
2022-11-07T23:39:05.982Z,99420.03
2022-11-07T23:41:32.773Z,99410.34
2022-11-07T23:43:59.875Z,99413.47
2022-11-07T23:46:45.202Z,99420.97
2022-11-07T23:49:30.902Z,99419.53
2022-11-07T23:51:57.717Z,99424.84
2022-11-07T23:54:43.392Z,99428.75
2022-11-07T23:57:10.143Z,99419.44
2022-11-07T23:59:59.462Z,99435.00
